createdAt,value
2023-04-07T00:04:28.732Z,52.43
2023-04-07T00:09:32.831Z,60.72
2023-04-07T00:14:35.481Z,62.03
2023-04-07T00:19:38.023Z,60.17
2023-04-07T00:24:41.924Z,66.57
2023-04-07T00:29:46.517Z,62.28
2023-04-07T00:34:49.099Z,69.72
2023-04-07T00:39:53.320Z,70.07
2023-04-07T00:44:56.071Z,67.32
2023-04-07T00:49:58.720Z,77.47
2023-04-07T00:55:02.655Z,73.43
2023-04-07T01:00:06.731Z,74.85
2023-04-07T01:05:16.430Z,78.30
2023-04-07T01:10:28.235Z,85.57
2023-04-07T01:15:34.454Z,77.47
2023-04-07T01:20:38.263Z,80.22
2023-04-07T01:26:05.295Z,88.40
2023-04-07T01:31:10.354Z,79.50
2023-04-07T01:36:14.050Z,88.90
2023-04-07T01:41:18.094Z,97.00
2023-04-07T01:46:22.841Z,86.53
2023-04-07T01:51:27.358Z,94.78
2023-04-07T01:56:29.958Z,103.28
2023-04-07T02:01:34.029Z,96.60
2023-04-07T02:06:43.148Z,103.80
2023-04-07T02:11:47.307Z,96.38
2023-04-07T02:16:52.767Z,95.35
2023-04-07T02:21:56.205Z,103.03
2023-04-07T02:27:00.844Z,99.93
2023-04-07T02:32:04.914Z,103.55
2023-04-07T02:37:07.591Z,108.50
2023-04-07T02:42:10.201Z,113.00
2023-04-07T02:47:14.169Z,109.70
2023-04-07T02:52:17.237Z,112.85
2023-04-07T02:57:20.025Z,117.05
2023-04-07T03:02:23.940Z,109.77
2023-04-07T03:07:26.699Z,110.50
2023-04-07T03:12:29.288Z,113.57
2023-04-07T03:17:33.523Z,107.45
2023-04-07T03:22:36.112Z,103.60
2023-04-07T03:27:38.707Z,106.47
2023-04-07T03:32:42.666Z,105.47
2023-04-07T03:37:46.291Z,92.53
2023-04-07T03:47:54.359Z,105.38
2023-04-07T03:52:57.061Z,85.03
2023-04-07T03:57:59.791Z,86.00
2023-04-07T04:03:04.137Z,85.87
2023-04-07T04:08:07.640Z,71.70
2023-04-07T04:18:14.355Z,61.03
2023-04-07T04:23:17.023Z,44.85
2023-04-07T04:28:19.553Z,55.00
2023-04-07T04:33:23.427Z,41.22
2023-04-07T04:38:26.007Z,43.67
2023-04-07T04:43:28.564Z,38.45
2023-04-07T04:48:32.497Z,39.00
2023-04-07T04:53:35.007Z,32.75
2023-04-07T04:58:40.343Z,37.47
2023-04-07T05:03:44.438Z,37.15
2023-04-07T05:08:47.071Z,41.60
2023-04-07T05:13:49.755Z,36.67
2023-04-07T05:18:53.927Z,36.47
2023-04-07T05:23:56.604Z,40.92
2023-04-07T05:28:59.113Z,41.43
2023-04-07T05:34:03.044Z,38.38
2023-04-07T05:39:05.897Z,47.95
2023-04-07T05:44:08.529Z,39.87
2023-04-07T05:49:19.703Z,43.47
2023-04-07T05:54:22.864Z,39.83
2023-04-07T05:59:25.498Z,35.95
2023-04-07T06:04:29.398Z,43.53
2023-04-07T06:09:31.998Z,42.25
2023-04-07T06:14:34.583Z,49.53
2023-04-07T06:19:38.554Z,44.37
2023-04-07T06:24:41.147Z,41.45
2023-04-07T06:29:43.737Z,39.73
2023-04-07T06:34:47.740Z,45.70
2023-04-07T06:39:50.718Z,41.45
2023-04-07T06:44:53.262Z,41.80
2023-04-07T06:49:57.190Z,59.33
2023-04-07T06:54:59.747Z,68.90
2023-04-07T07:00:02.274Z,72.07
2023-04-07T07:05:08.285Z,71.68
2023-04-07T07:10:11.449Z,67.15
2023-04-07T07:15:13.981Z,64.35
2023-04-07T07:20:18.186Z,66.47
2023-04-07T07:25:20.760Z,67.30
2023-04-07T07:30:24.757Z,55.55
2023-04-07T07:35:28.673Z,57.17
2023-04-07T07:40:31.334Z,45.20
2023-04-07T07:45:34.921Z,49.27
2023-04-07T07:50:38.888Z,51.42
2023-04-07T07:55:41.752Z,43.15
2023-04-07T08:00:44.367Z,48.60
2023-04-07T08:05:49.969Z,41.07
2023-04-07T08:10:52.590Z,39.33
2023-04-07T08:15:55.335Z,33.17
2023-04-07T08:20:59.269Z,37.37
2023-04-07T08:26:01.894Z,30.25
2023-04-07T08:31:04.490Z,32.00
2023-04-07T08:36:08.714Z,25.60
2023-04-07T08:41:13.949Z,28.20
2023-04-07T08:46:17.165Z,22.10
2023-04-07T08:51:28.782Z,19.88
2023-04-07T08:56:33.441Z,16.10
2023-04-07T09:01:37.100Z,17.00
2023-04-07T09:06:41.114Z,17.80
2023-04-07T09:11:43.777Z,16.40
2023-04-07T09:16:47.931Z,15.80
2023-04-07T09:21:53.323Z,14.00
2023-04-07T09:27:12.740Z,15.65
2023-04-07T09:32:38.661Z,16.23
2023-04-07T09:37:44.589Z,15.60
2023-04-07T09:42:48.301Z,14.15
2023-04-07T09:47:51.932Z,13.35
2023-04-07T09:52:55.951Z,11.35
2023-04-07T09:57:59.428Z,12.52
2023-04-07T10:08:08.442Z,8.68
2023-04-07T10:13:11.722Z,7.53
2023-04-07T10:23:23.278Z,5.78
2023-04-07T10:28:28.480Z,4.75
2023-04-07T10:33:48.349Z,5.00
2023-04-07T10:39:24.174Z,6.20
2023-04-07T10:44:58.396Z,9.02
2023-04-07T10:50:18.063Z,9.23
2023-04-07T10:55:36.699Z,12.43
2023-04-07T11:00:39.424Z,12.23
2023-04-07T11:05:42.548Z,15.07
2023-04-07T11:10:49.885Z,13.60
2023-04-07T11:15:52.574Z,16.85
2023-04-07T11:20:58.385Z,14.93
2023-04-07T11:26:03.467Z,15.65
2023-04-07T11:31:06.299Z,16.73
2023-04-07T11:36:09.121Z,12.32
2023-04-07T11:41:14.870Z,12.40
2023-04-07T11:46:19.264Z,11.60
2023-04-07T11:51:24.716Z,8.88
2023-04-07T11:56:30.423Z,8.90
2023-04-07T12:01:41.507Z,8.18
2023-04-07T12:06:45.492Z,7.60
2023-04-07T12:11:51.620Z,5.95
2023-04-07T12:16:56.424Z,5.45
2023-04-07T12:21:59.166Z,6.20
2023-04-07T12:27:03.533Z,4.97
2023-04-07T12:32:06.212Z,5.10
2023-04-07T12:37:08.806Z,5.40
2023-04-07T12:42:12.749Z,5.50
2023-04-07T12:47:15.958Z,5.95
2023-04-07T12:52:18.561Z,5.15
2023-04-07T12:57:22.634Z,4.77
2023-04-07T13:02:25.726Z,5.03
2023-04-07T13:07:28.341Z,4.70
2023-04-07T13:12:33.334Z,5.30
2023-04-07T13:17:38.514Z,6.40
2023-04-07T13:22:49.239Z,6.65
2023-04-07T13:27:55.952Z,5.63
2023-04-07T13:32:58.797Z,5.20
2023-04-07T13:38:01.520Z,5.80
2023-04-07T13:43:06.423Z,6.43
2023-04-07T13:48:09.060Z,6.13
2023-04-07T13:53:11.731Z,5.70
2023-04-07T13:58:15.619Z,5.63
2023-04-07T14:03:18.298Z,6.22
2023-04-07T14:08:23.618Z,8.60
2023-04-07T14:13:27.628Z,5.70
2023-04-07T14:18:30.176Z,6.47
2023-04-07T14:23:37.175Z,6.70
2023-04-07T14:28:42.190Z,7.32
2023-04-07T14:33:45.027Z,6.72
2023-04-07T14:38:47.603Z,6.57
2023-04-07T14:43:56.117Z,5.70
2023-04-07T14:48:59.172Z,5.05
2023-04-07T14:54:02.336Z,5.47
2023-04-07T14:59:06.184Z,6.22
2023-04-07T15:04:08.860Z,4.38
2023-04-07T15:09:11.420Z,4.38
2023-04-07T15:14:15.854Z,7.60
2023-04-07T15:19:18.539Z,4.45
2023-04-07T15:24:22.209Z,4.50
2023-04-07T15:29:27.429Z,5.30
2023-04-07T15:34:29.959Z,5.25
2023-04-07T15:39:32.670Z,5.23
2023-04-07T15:44:39.552Z,5.07
2023-04-07T15:49:42.324Z,5.43
2023-04-07T15:54:45.039Z,5.70
2023-04-07T15:59:49.009Z,5.30
2023-04-07T16:04:52.325Z,5.57
2023-04-07T16:09:55.982Z,7.63
2023-04-07T16:14:59.925Z,7.53
2023-04-07T16:20:03.690Z,5.35
2023-04-07T16:25:07.479Z,4.55
2023-04-07T16:30:13.640Z,5.28
2023-04-07T16:35:16.652Z,4.95
2023-04-07T16:40:19.195Z,4.65
2023-04-07T16:45:23.144Z,4.90
2023-04-07T16:50:25.707Z,5.00
2023-04-07T16:55:28.295Z,5.73
2023-04-07T17:00:32.412Z,4.43
2023-04-07T17:05:34.998Z,4.63
2023-04-07T17:10:37.558Z,4.27
2023-04-07T17:15:41.500Z,4.33
2023-04-07T17:20:44.148Z,4.78
2023-04-07T17:25:46.823Z,6.50
2023-04-07T17:30:50.793Z,8.13
2023-04-07T17:35:53.402Z,7.22
2023-04-07T17:40:58.383Z,8.10
2023-04-07T17:46:03.715Z,5.93
2023-04-07T17:51:06.467Z,5.22
2023-04-07T17:56:09.178Z,6.83
2023-04-07T18:01:13.117Z,9.43
2023-04-07T18:06:16.911Z,8.88
2023-04-07T18:11:19.575Z,11.02
2023-04-07T18:16:23.553Z,7.40
2023-04-07T18:21:26.141Z,7.70
2023-04-07T18:26:28.770Z,7.40
2023-04-07T18:31:33.612Z,8.53
2023-04-07T18:36:36.681Z,6.78
2023-04-07T18:41:41.803Z,7.07
2023-04-07T18:46:46.112Z,7.32
2023-04-07T18:51:48.899Z,22.77
2023-04-07T18:56:52.459Z,17.50
2023-04-07T19:06:59.413Z,16.70
2023-04-07T19:12:01.985Z,16.17
2023-04-07T19:17:06.125Z,14.80
2023-04-07T19:22:09.107Z,15.80
2023-04-07T19:27:12.693Z,13.52
2023-04-07T19:42:25.782Z,18.27
2023-04-07T19:47:31.176Z,17.58
2023-04-07T19:52:33.794Z,17.15
2023-04-07T19:57:37.039Z,16.73
2023-04-07T20:02:41.004Z,18.48
2023-04-07T20:07:44.224Z,21.80
2023-04-07T20:12:47.767Z,21.70
2023-04-07T20:17:51.861Z,18.95
2023-04-07T20:22:54.526Z,24.05
2023-04-07T20:27:57.090Z,22.42
2023-04-07T20:33:02.057Z,21.73
2023-04-07T20:38:04.772Z,27.30
2023-04-07T20:43:07.431Z,20.73
2023-04-07T20:48:11.393Z,23.60
2023-04-07T20:53:13.969Z,28.52
2023-04-07T20:58:17.621Z,24.40
2023-04-07T21:03:22.821Z,31.95
2023-04-07T21:08:25.679Z,30.45
2023-04-07T21:13:29.267Z,27.43
2023-04-07T21:18:33.249Z,31.38
2023-04-07T21:23:35.872Z,27.90
2023-04-07T21:28:40.060Z,27.02
2023-04-07T21:33:43.920Z,25.83
2023-04-07T21:38:46.615Z,26.30
2023-04-07T21:43:49.385Z,28.37
2023-04-07T21:48:54.396Z,26.65
2023-04-07T21:53:58.111Z,23.75
2023-04-07T21:59:01.512Z,22.63
2023-04-07T22:04:05.514Z,24.58
2023-04-07T22:09:08.506Z,25.15
2023-04-07T22:14:11.049Z,22.73
2023-04-07T22:19:15.089Z,24.02
2023-04-07T22:24:17.598Z,26.10
2023-04-07T22:29:20.211Z,22.42
2023-04-07T22:34:24.146Z,24.80
2023-04-07T22:39:27.339Z,28.95
2023-04-07T22:44:30.020Z,24.27
2023-04-07T22:49:34.040Z,25.93
2023-04-07T22:54:36.562Z,21.95
2023-04-07T22:59:39.160Z,25.05
2023-04-07T23:04:43.119Z,22.73
2023-04-07T23:09:46.310Z,24.98
2023-04-07T23:14:49.228Z,20.55
2023-04-07T23:19:53.286Z,23.97
2023-04-07T23:24:56.875Z,20.00
2023-04-07T23:35:03.321Z,21.13
2023-04-07T23:40:07.250Z,24.98
2023-04-07T23:45:10.524Z,24.42
2023-04-07T23:50:14.687Z,30.90
2023-04-07T23:55:17.375Z,32.25
